createdAt,value
2022-07-26T00:02:04.876Z,5.57
2022-07-26T00:04:34.852Z,4.63
2022-07-26T00:07:03.630Z,4.85
2022-07-26T00:09:32.246Z,5.18
2022-07-26T00:12:00.847Z,5.22
2022-07-26T00:14:29.536Z,4.63
2022-07-26T00:16:58.260Z,4.88
2022-07-26T00:19:26.905Z,4.90
2022-07-26T00:22:10.774Z,5.15
2022-07-26T00:24:40.454Z,5.18
2022-07-26T00:27:09.508Z,4.95
2022-07-26T00:29:38.235Z,5.03
2022-07-26T00:32:07.328Z,5.28
2022-07-26T00:34:35.968Z,4.90
2022-07-26T00:37:05.969Z,4.72
2022-07-26T00:39:34.638Z,5.45
2022-07-26T00:42:03.255Z,4.82
2022-07-26T00:44:38.570Z,4.80
2022-07-26T00:47:07.411Z,5.18
2022-07-26T00:49:36.034Z,4.53
2022-07-26T00:52:06.730Z,4.85
2022-07-26T00:54:35.390Z,4.90
2022-07-26T00:57:04.256Z,4.50
2022-07-26T00:59:32.889Z,4.63
2022-07-26T01:02:01.674Z,4.47
2022-07-26T01:04:30.465Z,4.45
2022-07-26T01:06:59.167Z,4.45
2022-07-26T01:09:29.187Z,4.20
2022-07-26T01:11:59.345Z,4.60
2022-07-26T01:14:28.204Z,4.13
2022-07-26T01:16:56.829Z,4.00
2022-07-26T01:19:25.430Z,4.40
2022-07-26T01:21:55.666Z,4.03
2022-07-26T01:24:24.323Z,4.18
2022-07-26T01:26:52.932Z,4.05
2022-07-26T01:29:21.566Z,4.45
2022-07-26T01:31:50.546Z,3.67
2022-07-26T01:34:19.803Z,3.80
2022-07-26T01:36:48.758Z,3.97
2022-07-26T01:39:18.840Z,3.90
2022-07-26T01:41:47.476Z,3.95
2022-07-26T01:44:16.234Z,4.28
2022-07-26T01:46:44.981Z,3.78
2022-07-26T01:49:13.677Z,4.15
2022-07-26T01:51:43.331Z,4.03
2022-07-26T01:54:12.511Z,3.33
2022-07-26T01:56:43.406Z,3.90
2022-07-26T01:59:12.168Z,4.00
2022-07-26T02:01:40.887Z,3.28
2022-07-26T02:04:29.819Z,3.50
2022-07-26T02:06:58.573Z,3.25
2022-07-26T02:09:27.871Z,3.10
2022-07-26T02:12:08.762Z,3.28
2022-07-26T02:14:37.482Z,3.28
2022-07-26T02:17:06.340Z,3.60
2022-07-26T02:19:35.001Z,3.50
2022-07-26T02:22:03.704Z,3.60
2022-07-26T02:24:32.405Z,3.83
2022-07-26T02:27:02.214Z,3.15
2022-07-26T02:29:32.388Z,3.42
2022-07-26T02:32:01.199Z,3.63
2022-07-26T02:34:33.753Z,3.40
2022-07-26T02:37:02.919Z,3.08
2022-07-26T02:39:31.753Z,3.28
2022-07-26T02:42:01.615Z,3.55
2022-07-26T02:44:30.655Z,3.90
2022-07-26T02:47:00.763Z,3.20
2022-07-26T02:49:29.530Z,3.67
2022-07-26T02:51:58.176Z,3.10
2022-07-26T02:54:26.894Z,3.50
2022-07-26T02:56:55.570Z,3.25
2022-07-26T02:59:24.269Z,3.30
2022-07-26T03:01:52.979Z,3.45
2022-07-26T03:04:23.140Z,3.20
2022-07-26T03:06:51.796Z,3.00
2022-07-26T03:09:20.418Z,3.15
2022-07-26T03:11:49.007Z,3.15
2022-07-26T03:14:17.628Z,3.30
2022-07-26T03:16:46.243Z,2.97
2022-07-26T03:19:14.789Z,3.42
2022-07-26T03:21:44.757Z,2.80
2022-07-26T03:24:13.328Z,2.92
2022-07-26T03:26:41.903Z,2.78
2022-07-26T03:29:10.609Z,2.75
2022-07-26T03:31:39.220Z,3.08
2022-07-26T03:34:08.105Z,3.20
2022-07-26T03:36:37.028Z,3.30
2022-07-26T03:39:07.130Z,3.40
2022-07-26T03:41:35.711Z,3.10
2022-07-26T03:44:04.700Z,3.42
2022-07-26T03:46:33.547Z,3.15
2022-07-26T03:49:02.352Z,3.40
2022-07-26T03:51:33.884Z,3.40
2022-07-26T03:54:02.603Z,3.50
2022-07-26T03:56:34.311Z,3.17
2022-07-26T04:01:32.173Z,3.35
2022-07-26T04:04:00.834Z,3.70
2022-07-26T04:06:30.270Z,3.38
2022-07-26T04:08:58.930Z,3.45
2022-07-26T04:11:28.800Z,3.50
2022-07-26T04:13:58.988Z,3.97
2022-07-26T04:16:27.825Z,3.08
2022-07-26T04:18:56.756Z,3.38
2022-07-26T04:21:25.380Z,3.90
2022-07-26T04:23:53.984Z,3.67
2022-07-26T04:26:22.883Z,3.05
2022-07-26T04:28:51.506Z,3.70
2022-07-26T04:31:21.540Z,4.22
2022-07-26T04:33:50.410Z,3.65
2022-07-26T04:36:19.147Z,3.72
2022-07-26T04:38:47.814Z,3.85
2022-07-26T04:41:16.419Z,4.10
2022-07-26T04:43:45.048Z,4.13
2022-07-26T04:46:13.705Z,4.00
2022-07-26T04:48:43.851Z,3.97
2022-07-26T04:51:12.531Z,3.90
2022-07-26T04:53:41.216Z,3.45
2022-07-26T04:56:09.850Z,4.15
2022-07-26T04:58:38.479Z,4.05
2022-07-26T05:01:11.213Z,3.83
2022-07-26T05:03:40.094Z,3.53
2022-07-26T05:06:10.317Z,3.78
2022-07-26T05:08:38.953Z,4.10
2022-07-26T05:11:07.771Z,4.10
2022-07-26T05:13:36.415Z,3.83
2022-07-26T05:16:11.574Z,3.45
2022-07-26T05:18:48.874Z,3.55
2022-07-26T05:21:20.609Z,3.63
2022-07-26T05:23:49.283Z,3.75
2022-07-26T05:26:17.850Z,3.70
2022-07-26T05:28:46.583Z,4.28
2022-07-26T05:31:15.163Z,3.80
2022-07-26T05:33:43.915Z,3.63
2022-07-26T05:36:12.561Z,3.60
2022-07-26T05:38:42.599Z,3.80
2022-07-26T05:41:12.126Z,3.58
2022-07-26T05:43:42.156Z,3.50
2022-07-26T05:46:11.866Z,3.80
2022-07-26T05:48:40.822Z,3.50
2022-07-26T05:51:09.768Z,3.47
2022-07-26T05:53:38.781Z,3.53
2022-07-26T05:56:09.303Z,3.80
2022-07-26T05:58:38.252Z,3.20
2022-07-26T06:01:07.064Z,3.80
2022-07-26T06:03:35.754Z,3.50
2022-07-26T06:06:04.656Z,3.63
2022-07-26T06:08:33.274Z,3.40
2022-07-26T06:11:01.925Z,3.25
2022-07-26T06:13:31.978Z,3.33
2022-07-26T06:16:00.628Z,3.35
2022-07-26T06:18:29.250Z,3.63
2022-07-26T06:21:02.554Z,3.70
2022-07-26T06:23:34.547Z,3.30
2022-07-26T06:26:04.079Z,3.08
2022-07-26T06:28:34.545Z,3.38
2022-07-26T06:31:03.320Z,3.58
2022-07-26T06:33:32.024Z,3.78
2022-07-26T06:36:00.746Z,3.85
2022-07-26T06:38:29.413Z,3.25
2022-07-26T06:40:58.084Z,3.05
2022-07-26T06:43:26.758Z,3.22
2022-07-26T06:45:56.880Z,3.40
2022-07-26T06:48:25.610Z,3.40
2022-07-26T06:50:54.554Z,3.30
2022-07-26T06:53:23.127Z,3.28
2022-07-26T06:55:51.730Z,3.17
2022-07-26T06:58:20.975Z,3.25
2022-07-26T07:00:49.656Z,3.53
2022-07-26T07:03:19.710Z,3.25
2022-07-26T07:05:50.301Z,5.10
2022-07-26T07:08:21.355Z,4.22
2022-07-26T07:10:51.936Z,4.57
2022-07-26T07:13:21.070Z,4.18
2022-07-26T07:15:49.686Z,4.13
2022-07-26T07:18:18.286Z,4.10
2022-07-26T07:20:48.222Z,4.32
2022-07-26T07:23:17.109Z,4.28
2022-07-26T07:25:45.646Z,4.75
2022-07-26T07:28:17.580Z,4.45
2022-07-26T07:30:48.121Z,4.13
2022-07-26T07:33:22.849Z,4.20
2022-07-26T07:35:53.856Z,4.10
2022-07-26T07:38:22.775Z,3.97
2022-07-26T07:40:52.054Z,3.97
2022-07-26T07:43:20.726Z,4.15
2022-07-26T07:45:49.431Z,4.47
2022-07-26T07:48:18.245Z,4.05
2022-07-26T07:50:46.976Z,2.92
2022-07-26T07:53:17.046Z,3.70
2022-07-26T07:55:48.549Z,3.38
2022-07-26T07:58:19.034Z,3.22
2022-07-26T08:00:48.485Z,3.15
2022-07-26T08:03:17.687Z,4.50
2022-07-26T08:05:49.786Z,3.40
2022-07-26T08:08:22.323Z,3.08
2022-07-26T08:10:52.935Z,3.45
2022-07-26T08:13:22.165Z,3.13
2022-07-26T08:15:51.201Z,3.25
2022-07-26T08:18:22.619Z,3.50
2022-07-26T08:20:51.993Z,3.17
2022-07-26T08:23:22.045Z,3.13
2022-07-26T08:25:56.965Z,3.50
2022-07-26T08:31:15.866Z,2.83
2022-07-26T08:33:46.511Z,2.97
2022-07-26T08:36:15.972Z,2.80
2022-07-26T08:38:47.149Z,3.00
2022-07-26T08:41:17.269Z,2.95
2022-07-26T08:43:52.134Z,2.90
2022-07-26T08:46:27.655Z,3.30
2022-07-26T08:48:56.946Z,3.10
2022-07-26T08:51:26.394Z,3.20
2022-07-26T08:54:04.820Z,2.92
2022-07-26T08:56:34.532Z,2.85
2022-07-26T08:59:05.211Z,3.38
2022-07-26T09:01:34.151Z,5.20
2022-07-26T09:04:30.479Z,4.30
2022-07-26T09:07:01.911Z,3.30
2022-07-26T09:09:32.553Z,4.18
2022-07-26T09:12:01.202Z,3.00
2022-07-26T09:14:38.282Z,2.65
2022-07-26T09:17:08.541Z,2.75
2022-07-26T09:19:37.197Z,2.72
2022-07-26T09:22:10.530Z,2.80
2022-07-26T09:24:42.423Z,2.78
2022-07-26T09:29:46.196Z,2.58
2022-07-26T09:32:18.054Z,2.50
2022-07-26T09:34:52.706Z,2.90
2022-07-26T09:37:34.993Z,2.78
2022-07-26T09:40:06.882Z,3.13
2022-07-26T09:42:36.321Z,2.78
2022-07-26T09:45:05.816Z,2.67
2022-07-26T09:48:05.484Z,2.95
2022-07-26T09:50:34.729Z,2.42
2022-07-26T09:53:07.216Z,2.90
2022-07-26T09:55:44.512Z,2.88
2022-07-26T09:58:14.392Z,2.97
2022-07-26T10:00:43.619Z,2.67
2022-07-26T10:03:12.370Z,2.67
2022-07-26T10:05:41.072Z,3.47
2022-07-26T10:08:09.966Z,2.85
2022-07-26T10:10:41.851Z,2.72
2022-07-26T10:13:10.717Z,2.90
2022-07-26T10:15:40.913Z,2.70
2022-07-26T10:18:16.550Z,2.90
2022-07-26T10:20:48.309Z,2.83
2022-07-26T10:23:50.266Z,2.80
2022-07-26T10:26:40.671Z,2.90
2022-07-26T10:29:26.212Z,165.48
2022-07-26T10:32:13.791Z,82.05
2022-07-26T10:34:43.133Z,80.22
2022-07-26T10:37:12.897Z,182.70
2022-07-26T10:39:41.543Z,144.15
2022-07-26T10:42:12.207Z,111.72
2022-07-26T10:44:42.044Z,92.05
2022-07-26T10:47:18.655Z,83.80
2022-07-26T10:49:57.394Z,88.32
2022-07-26T10:52:27.667Z,73.28
2022-07-26T10:55:17.303Z,74.45
2022-07-26T10:57:49.365Z,66.43
2022-07-26T11:00:19.567Z,42.25
2022-07-26T11:02:56.009Z,33.10
2022-07-26T11:05:28.796Z,24.52
2022-07-26T11:08:01.437Z,27.70
2022-07-26T11:10:31.537Z,35.38
2022-07-26T11:13:06.198Z,23.98
2022-07-26T11:15:35.512Z,26.20
2022-07-26T11:18:08.790Z,30.05
2022-07-26T11:20:37.389Z,19.42
2022-07-26T11:23:06.502Z,20.10
2022-07-26T11:25:35.132Z,16.65
2022-07-26T11:28:08.303Z,18.80
2022-07-26T11:30:37.052Z,22.33
2022-07-26T11:33:06.426Z,12.48
2022-07-26T11:35:35.069Z,15.77
2022-07-26T11:38:11.831Z,19.23
2022-07-26T11:40:44.928Z,11.55
2022-07-26T11:43:15.103Z,7.57
2022-07-26T11:45:43.850Z,8.18
2022-07-26T11:48:12.469Z,11.73
2022-07-26T11:50:41.055Z,11.85
2022-07-26T11:53:22.409Z,6.65
2022-07-26T11:55:51.038Z,7.10
2022-07-26T11:58:21.118Z,5.30
2022-07-26T12:00:49.798Z,7.85
2022-07-26T12:03:18.416Z,4.78
2022-07-26T12:06:02.942Z,4.10
2022-07-26T12:08:40.276Z,4.65
2022-07-26T12:11:08.983Z,6.30
2022-07-26T12:13:55.281Z,5.75
2022-07-26T12:16:45.262Z,5.55
2022-07-26T12:19:25.568Z,4.15
2022-07-26T12:21:55.743Z,4.55
2022-07-26T12:24:41.685Z,3.22
2022-07-26T12:27:11.233Z,3.20
2022-07-26T12:29:40.703Z,3.35
2022-07-26T12:32:12.738Z,3.22
2022-07-26T12:34:42.273Z,3.15
2022-07-26T12:37:15.330Z,3.47
2022-07-26T12:39:45.372Z,2.90
2022-07-26T12:42:34.466Z,3.55
2022-07-26T12:45:04.263Z,3.85
2022-07-26T12:47:34.465Z,3.25
2022-07-26T12:50:03.674Z,3.83
2022-07-26T12:52:33.822Z,3.30
2022-07-26T12:55:03.089Z,3.03
2022-07-26T12:57:31.750Z,3.15
2022-07-26T13:00:00.511Z,3.15
2022-07-26T13:02:29.184Z,2.85
2022-07-26T13:05:00.503Z,2.95
2022-07-26T13:10:22.571Z,2.92
2022-07-26T13:12:46.887Z,2.70
2022-07-26T13:15:15.463Z,2.95
2022-07-26T13:17:44.084Z,3.30
2022-07-26T13:20:14.224Z,3.40
2022-07-26T13:22:45.754Z,3.10
2022-07-26T13:25:14.747Z,3.15
2022-07-26T13:27:45.051Z,2.90
2022-07-26T13:30:14.527Z,2.70
2022-07-26T13:32:43.197Z,2.85
2022-07-26T13:35:11.965Z,2.75
2022-07-26T13:37:41.957Z,2.78
2022-07-26T13:40:11.226Z,2.40
2022-07-26T13:42:39.824Z,2.55
2022-07-26T13:45:09.208Z,3.60
2022-07-26T13:47:37.840Z,16.48
2022-07-26T13:50:07.897Z,55.90
2022-07-26T13:52:36.582Z,85.63
2022-07-26T13:55:06.948Z,167.07
2022-07-26T13:57:47.897Z,287.38
2022-07-26T14:00:25.430Z,212.90
2022-07-26T14:02:54.169Z,155.38
2022-07-26T14:05:22.863Z,137.73
2022-07-26T14:07:51.607Z,134.43
2022-07-26T14:10:22.020Z,110.80
2022-07-26T14:12:50.822Z,119.03
2022-07-26T14:15:22.569Z,81.15
2022-07-26T14:17:52.298Z,91.90
2022-07-26T14:20:21.429Z,54.42
2022-07-26T14:22:53.444Z,61.40
2022-07-26T14:25:24.186Z,62.45
2022-07-26T14:27:52.861Z,62.67
2022-07-26T14:30:21.786Z,32.53
2022-07-26T14:32:50.632Z,50.88
2022-07-26T14:35:19.865Z,33.47
2022-07-26T14:37:48.536Z,28.58
2022-07-26T14:40:18.161Z,52.25
2022-07-26T14:42:50.169Z,21.48
2022-07-26T14:45:18.866Z,20.75
2022-07-26T14:47:47.458Z,31.27
2022-07-26T14:50:16.647Z,15.93
2022-07-26T14:52:46.666Z,21.65
2022-07-26T14:55:15.338Z,18.60
2022-07-26T14:57:44.519Z,19.30
2022-07-26T15:00:15.474Z,14.23
2022-07-26T15:02:44.912Z,13.82
2022-07-26T15:05:14.960Z,18.48
2022-07-26T15:07:43.843Z,16.17
2022-07-26T15:10:13.160Z,13.20
2022-07-26T15:12:42.448Z,14.00
2022-07-26T15:15:11.968Z,12.13
2022-07-26T15:17:41.979Z,8.45
2022-07-26T15:20:10.998Z,7.70
2022-07-26T15:22:39.559Z,12.68
2022-07-26T15:25:08.580Z,10.15
2022-07-26T15:27:37.297Z,6.97
2022-07-26T15:30:10.183Z,8.48
2022-07-26T15:32:43.663Z,7.85
2022-07-26T15:35:14.244Z,6.63
2022-07-26T15:37:44.708Z,6.88
2022-07-26T15:40:13.930Z,5.95
2022-07-26T15:42:43.397Z,5.45
2022-07-26T15:45:13.478Z,6.28
2022-07-26T15:48:09.373Z,4.88
2022-07-26T15:50:32.510Z,5.85
2022-07-26T15:53:01.170Z,6.03
2022-07-26T15:55:29.791Z,4.63
2022-07-26T15:57:58.352Z,5.35
2022-07-26T16:00:27.455Z,5.53
2022-07-26T16:02:57.468Z,4.15
2022-07-26T16:05:26.092Z,4.85
2022-07-26T16:07:54.734Z,4.55
2022-07-26T16:10:23.382Z,3.80
2022-07-26T16:12:52.024Z,4.90
2022-07-26T16:15:20.576Z,4.35
2022-07-26T16:17:49.196Z,4.00
2022-07-26T16:20:20.315Z,3.95
2022-07-26T16:22:49.060Z,3.35
2022-07-26T16:25:17.701Z,3.80
2022-07-26T16:27:46.750Z,3.35
2022-07-26T16:30:16.458Z,3.78
2022-07-26T16:32:45.907Z,3.70
2022-07-26T16:35:14.800Z,4.00
2022-07-26T16:37:44.819Z,3.50
2022-07-26T16:40:13.874Z,4.05
2022-07-26T16:42:42.511Z,3.58
2022-07-26T16:45:11.435Z,3.28
2022-07-26T16:47:40.047Z,3.25
2022-07-26T16:50:09.081Z,3.47
2022-07-26T16:52:37.721Z,3.35
2022-07-26T16:55:10.754Z,3.00
2022-07-26T16:57:39.577Z,3.28
2022-07-26T17:00:10.228Z,3.45
2022-07-26T17:02:39.070Z,3.70
2022-07-26T17:05:08.561Z,3.05
2022-07-26T17:07:37.623Z,3.40
2022-07-26T17:10:06.833Z,3.85
2022-07-26T17:12:37.286Z,3.70
2022-07-26T17:15:06.839Z,3.70
2022-07-26T17:17:35.413Z,4.13
2022-07-26T17:20:04.137Z,3.60
2022-07-26T17:22:32.788Z,3.50
2022-07-26T17:25:01.404Z,4.00
2022-07-26T17:27:30.016Z,3.65
2022-07-26T17:30:05.948Z,3.90
2022-07-26T17:32:35.338Z,50.08
2022-07-26T17:35:04.097Z,85.97
2022-07-26T17:37:34.915Z,121.85
2022-07-26T17:40:03.817Z,130.45
2022-07-26T17:42:32.539Z,141.55
2022-07-26T17:45:02.493Z,110.43
2022-07-26T17:47:31.132Z,83.85
2022-07-26T17:50:26.441Z,85.90
2022-07-26T17:52:50.019Z,124.53
2022-07-26T17:55:19.651Z,131.82
2022-07-26T17:57:48.485Z,194.82
2022-07-26T18:00:20.463Z,144.65
2022-07-26T18:02:49.252Z,177.27
2022-07-26T18:05:19.217Z,194.35
2022-07-26T18:07:47.911Z,232.45
2022-07-26T18:10:16.574Z,171.05
2022-07-26T18:12:45.146Z,120.03
2022-07-26T18:15:13.756Z,115.10
2022-07-26T18:17:43.764Z,109.53
2022-07-26T18:20:13.014Z,119.60
2022-07-26T18:22:41.795Z,116.07
2022-07-26T18:25:14.517Z,107.82
2022-07-26T18:27:43.263Z,79.90
2022-07-26T18:30:12.067Z,68.90
2022-07-26T18:32:40.682Z,57.90
2022-07-26T18:35:10.745Z,68.10
2022-07-26T18:37:39.427Z,54.00
2022-07-26T18:40:08.896Z,75.25
2022-07-26T18:42:37.890Z,57.28
2022-07-26T18:45:07.024Z,47.13
2022-07-26T18:47:35.655Z,45.90
2022-07-26T18:50:04.257Z,45.70
2022-07-26T18:52:34.572Z,43.92
2022-07-26T18:55:06.809Z,42.17
2022-07-26T18:57:35.586Z,40.25
2022-07-26T19:00:05.096Z,43.70
2022-07-26T19:02:33.775Z,41.38
2022-07-26T19:05:02.338Z,45.10
2022-07-26T19:07:31.735Z,34.40
2022-07-26T19:10:01.756Z,34.05
2022-07-26T19:12:30.600Z,30.42
2022-07-26T19:14:59.964Z,29.52
2022-07-26T19:17:30.073Z,26.30
2022-07-26T19:20:01.705Z,27.63
2022-07-26T19:22:30.492Z,26.10
2022-07-26T19:24:59.291Z,19.98
2022-07-26T19:27:29.450Z,21.17
2022-07-26T19:29:58.454Z,17.40
2022-07-26T19:32:31.759Z,19.15
2022-07-26T19:35:02.354Z,19.52
2022-07-26T19:37:30.959Z,17.42
2022-07-26T19:40:01.037Z,13.43
2022-07-26T19:42:32.005Z,11.68
2022-07-26T19:45:00.689Z,11.57
2022-07-26T19:47:30.147Z,9.93
2022-07-26T19:49:58.943Z,9.18
2022-07-26T19:52:27.603Z,6.65
2022-07-26T19:54:56.363Z,63.88
2022-07-26T19:57:25.293Z,118.05
2022-07-26T19:59:56.375Z,88.05
2022-07-26T20:02:25.153Z,100.55
2022-07-26T20:04:54.765Z,104.88
2022-07-26T20:07:23.394Z,102.90
2022-07-26T20:09:52.443Z,61.28
2022-07-26T20:12:21.866Z,66.72
2022-07-26T20:14:51.036Z,49.53
2022-07-26T20:17:22.337Z,99.20
2022-07-26T20:19:51.044Z,80.38
2022-07-26T20:22:19.708Z,107.43
2022-07-26T20:24:48.402Z,74.78
2022-07-26T20:27:17.116Z,108.30
2022-07-26T20:29:45.695Z,82.20
2022-07-26T20:32:14.371Z,94.05
2022-07-26T20:34:44.339Z,55.55
2022-07-26T20:37:12.984Z,41.92
2022-07-26T20:39:43.332Z,49.80
2022-07-26T20:42:14.858Z,31.63
2022-07-26T20:44:50.785Z,25.45
2022-07-26T20:47:19.544Z,22.33
2022-07-26T20:49:49.562Z,17.67
2022-07-26T20:52:18.239Z,17.10
2022-07-26T20:54:47.129Z,14.70
2022-07-26T20:57:15.770Z,16.77
2022-07-26T20:59:44.835Z,12.35
2022-07-26T21:02:13.497Z,11.75
2022-07-26T21:04:42.262Z,10.32
2022-07-26T21:07:12.321Z,8.75
2022-07-26T21:09:40.980Z,8.88
2022-07-26T21:12:10.178Z,8.80
2022-07-26T21:14:39.298Z,7.13
2022-07-26T21:17:11.516Z,7.68
2022-07-26T21:19:40.938Z,8.40
2022-07-26T21:22:09.845Z,6.35
2022-07-26T21:24:39.834Z,6.50
2022-07-26T21:27:09.685Z,6.50
2022-07-26T21:29:39.674Z,6.05
2022-07-26T21:32:08.454Z,5.68
2022-07-26T21:34:37.191Z,5.90
2022-07-26T21:37:06.257Z,5.50
2022-07-26T21:39:34.897Z,5.47
2022-07-26T21:42:05.014Z,4.88
2022-07-26T21:44:33.659Z,5.40
2022-07-26T21:47:02.258Z,5.22
2022-07-26T21:49:30.922Z,5.53
2022-07-26T21:51:59.565Z,5.72
2022-07-26T21:54:28.399Z,5.68
2022-07-26T21:56:57.016Z,5.05
2022-07-26T21:59:26.956Z,5.90
2022-07-26T22:01:55.609Z,5.22
2022-07-26T22:04:24.417Z,4.70
2022-07-26T22:06:52.995Z,4.72
2022-07-26T22:09:21.604Z,4.50
2022-07-26T22:11:50.174Z,4.15
2022-07-26T22:14:18.946Z,4.63
2022-07-26T22:16:49.402Z,4.60
2022-07-26T22:19:18.128Z,4.40
2022-07-26T22:21:46.725Z,4.22
2022-07-26T22:24:15.388Z,4.65
2022-07-26T22:26:44.011Z,5.00
2022-07-26T22:29:13.026Z,4.20
2022-07-26T22:31:41.936Z,4.40
2022-07-26T22:34:11.961Z,4.63
2022-07-26T22:36:45.281Z,4.18
2022-07-26T22:39:14.902Z,4.10
2022-07-26T22:42:12.701Z,5.15
2022-07-26T22:44:32.662Z,5.25
2022-07-26T22:47:01.243Z,4.93
2022-07-26T22:49:31.335Z,5.30
2022-07-26T22:52:00.026Z,4.45
2022-07-26T22:54:28.664Z,4.55
2022-07-26T22:56:57.403Z,4.45
2022-07-26T22:59:26.163Z,4.70
2022-07-26T23:01:54.749Z,4.40
2022-07-26T23:04:23.467Z,4.20
2022-07-26T23:06:54.951Z,4.40
2022-07-26T23:09:23.840Z,4.15
2022-07-26T23:11:52.487Z,4.40
2022-07-26T23:14:21.044Z,4.47
2022-07-26T23:16:49.847Z,4.30
2022-07-26T23:19:18.454Z,4.10
2022-07-26T23:21:47.049Z,4.57
2022-07-26T23:24:17.084Z,4.40
2022-07-26T23:26:45.802Z,4.13
2022-07-26T23:29:15.004Z,4.55
2022-07-26T23:31:43.883Z,3.88
2022-07-26T23:34:12.544Z,4.15
2022-07-26T23:36:41.217Z,4.05
2022-07-26T23:39:10.075Z,3.95
2022-07-26T23:41:40.201Z,4.00
2022-07-26T23:44:08.836Z,3.88
2022-07-26T23:46:37.681Z,3.80
2022-07-26T23:49:06.488Z,3.63
2022-07-26T23:51:35.128Z,3.80
2022-07-26T23:54:03.780Z,3.80
2022-07-26T23:56:32.434Z,3.60
2022-07-26T23:59:02.426Z,3.90
